createdAt,value
2023-03-20T00:00:41.202Z,99586.97
2023-03-20T00:03:16.682Z,99581.97
2023-03-20T00:05:47.188Z,99588.41
2023-03-20T00:08:19.849Z,99589.81
2023-03-20T00:10:50.726Z,99590.22
2023-03-20T00:13:28.753Z,99586.38
2023-03-20T00:16:05.709Z,99591.66
2023-03-20T00:18:39.466Z,99585.13
2023-03-20T00:21:14.922Z,99584.16
2023-03-20T00:23:44.557Z,99578.06
2023-03-20T00:26:14.351Z,99572.34
2023-03-20T00:28:45.765Z,99574.91
2023-03-20T00:31:30.839Z,99569.66
2023-03-20T00:34:10.282Z,99573.44
2023-03-20T00:36:47.803Z,99577.38
2023-03-20T00:39:25.570Z,99573.28
2023-03-20T00:41:57.376Z,99570.47
2023-03-20T00:44:28.024Z,99570.34
2023-03-20T00:47:13.577Z,99572.19
2023-03-20T00:49:45.783Z,99569.38
2023-03-20T00:52:23.004Z,99567.78
2023-03-20T00:54:54.082Z,99560.69
2023-03-20T00:57:25.643Z,99568.66
2023-03-20T00:59:58.203Z,99564.75
2023-03-20T01:02:34.764Z,99568.41
2023-03-20T01:05:06.739Z,99559.16
2023-03-20T01:07:37.948Z,99565.28
2023-03-20T01:10:08.504Z,99556.16
2023-03-20T01:12:37.708Z,99566.81
2023-03-20T01:15:25.327Z,99562.59
2023-03-20T01:17:56.074Z,99566.50
2023-03-20T01:20:27.194Z,99573.28
2023-03-20T01:22:57.552Z,99570.94
2023-03-20T01:25:31.138Z,99571.78
2023-03-20T01:28:00.116Z,99576.72
2023-03-20T01:30:36.554Z,99573.44
2023-03-20T01:33:26.508Z,99573.97
2023-03-20T01:35:59.537Z,99570.91
2023-03-20T01:38:36.885Z,99583.44
2023-03-20T01:41:16.734Z,99574.72
2023-03-20T01:43:53.440Z,99584.66
2023-03-20T01:46:31.506Z,99581.44
2023-03-20T01:49:48.577Z,99575.91
2023-03-20T01:52:27.731Z,99582.22
2023-03-20T01:54:56.145Z,99582.63
2023-03-20T01:57:29.617Z,99575.59
2023-03-20T02:00:05.866Z,99593.81
2023-03-20T02:03:05.458Z,99582.34
2023-03-20T02:05:55.283Z,99582.63
2023-03-20T02:09:10.660Z,99582.66
2023-03-20T02:11:52.215Z,99580.38
2023-03-20T02:14:24.151Z,99577.09
2023-03-20T02:17:13.544Z,99578.00
2023-03-20T02:20:02.228Z,99574.72
2023-03-20T02:23:07.118Z,99579.28
2023-03-20T02:26:28.819Z,99587.31
2023-03-20T02:29:23.573Z,99582.81
2023-03-20T02:32:27.549Z,99583.34
2023-03-20T02:35:48.628Z,99585.06
2023-03-20T02:38:54.376Z,99590.69
2023-03-20T02:41:28.204Z,99597.28
2023-03-20T02:44:05.104Z,99602.31
2023-03-20T02:46:40.479Z,99594.59
2023-03-20T02:49:26.080Z,99599.41
2023-03-20T02:52:04.841Z,99594.75
2023-03-20T02:54:57.919Z,99597.34
2023-03-20T02:57:38.193Z,99588.56
2023-03-20T03:00:17.691Z,99601.03
2023-03-20T03:02:50.291Z,99600.06
2023-03-20T03:05:25.410Z,99604.41
2023-03-20T03:07:57.693Z,99600.44
2023-03-20T03:10:33.600Z,99599.72
2023-03-20T03:13:13.665Z,99607.44
2023-03-20T03:15:52.289Z,99598.44
2023-03-20T03:18:25.500Z,99610.06
2023-03-20T03:21:00.274Z,99607.38
2023-03-20T03:23:33.744Z,99611.78
2023-03-20T03:26:11.017Z,99600.56
2023-03-20T03:28:41.976Z,99606.88
2023-03-20T03:31:14.357Z,99598.78
2023-03-20T03:33:50.482Z,99607.56
2023-03-20T03:36:29.693Z,99601.94
2023-03-20T03:39:05.545Z,99605.44
2023-03-20T03:41:44.198Z,99598.94
2023-03-20T03:44:19.707Z,99596.78
2023-03-20T03:46:55.017Z,99605.63
2023-03-20T03:49:29.000Z,99605.50
2023-03-20T03:52:03.718Z,99613.09
2023-03-20T03:54:39.167Z,99607.16
2023-03-20T03:57:38.523Z,99601.84
2023-03-20T04:00:14.548Z,99600.53
2023-03-20T04:02:46.410Z,99603.06
2023-03-20T04:05:15.466Z,99592.03
2023-03-20T04:07:48.232Z,99595.38
2023-03-20T04:10:22.668Z,99588.25
2023-03-20T04:12:55.308Z,99598.44
2023-03-20T04:15:27.708Z,99600.06
2023-03-20T04:18:05.714Z,99611.84
2023-03-20T04:20:41.203Z,99603.75
2023-03-20T04:23:09.290Z,99599.41
2023-03-20T04:25:39.242Z,99595.50
2023-03-20T04:28:14.518Z,99591.88
2023-03-20T04:30:58.333Z,99594.22
2023-03-20T04:34:00.356Z,99595.50
2023-03-20T04:36:58.435Z,99590.28
2023-03-20T04:39:45.617Z,99610.22
2023-03-20T04:42:15.011Z,99596.53
2023-03-20T04:44:48.802Z,99589.63
2023-03-20T04:47:20.148Z,99605.09
2023-03-20T04:49:49.286Z,99601.94
2023-03-20T04:52:21.308Z,99607.00
2023-03-20T04:54:53.402Z,99611.88
2023-03-20T04:57:23.087Z,99615.47
2023-03-20T05:00:08.327Z,99622.66
2023-03-20T05:02:37.414Z,99620.78
2023-03-20T05:05:12.113Z,99632.75
2023-03-20T05:07:41.382Z,99641.84
2023-03-20T05:10:21.733Z,99646.38
2023-03-20T05:13:15.619Z,99652.97
2023-03-20T05:16:06.071Z,99645.56
2023-03-20T05:18:55.501Z,99648.00
2023-03-20T05:21:48.453Z,99653.34
2023-03-20T05:24:33.095Z,99655.56
2023-03-20T05:27:25.007Z,99659.84
2023-03-20T05:30:14.682Z,99668.38
2023-03-20T05:32:55.445Z,99671.16
2023-03-20T05:35:42.401Z,99674.94
2023-03-20T05:38:23.975Z,99672.75
2023-03-20T05:41:16.400Z,99678.25
2023-03-20T05:44:12.670Z,99677.94
2023-03-20T05:47:10.619Z,99689.50
2023-03-20T05:50:33.477Z,99692.53
2023-03-20T05:53:21.389Z,99698.03
2023-03-20T05:56:20.061Z,99693.09
2023-03-20T05:59:13.443Z,99696.59
2023-03-20T06:02:12.833Z,99697.91
2023-03-20T06:04:58.486Z,99703.66
2023-03-20T06:07:51.669Z,99701.41
2023-03-20T06:10:23.437Z,99711.13
2023-03-20T06:13:01.330Z,99710.53
2023-03-20T06:15:32.674Z,99696.34
2023-03-20T06:18:15.120Z,99703.41
2023-03-20T06:20:44.672Z,99699.41
2023-03-20T06:23:16.929Z,99706.75
2023-03-20T06:25:53.537Z,99710.38
2023-03-20T06:28:23.668Z,99704.09
2023-03-20T06:31:04.023Z,99713.25
2023-03-20T06:33:32.517Z,99705.88
2023-03-20T06:36:11.156Z,99695.44
2023-03-20T06:38:44.303Z,99707.41
2023-03-20T06:41:31.894Z,99714.59
2023-03-20T06:44:07.752Z,99716.41
2023-03-20T06:47:08.079Z,99715.69
2023-03-20T06:49:36.822Z,99712.34
2023-03-20T06:52:16.547Z,99717.69
2023-03-20T06:55:06.326Z,99718.22
2023-03-20T06:57:35.652Z,99715.97
2023-03-20T07:00:13.315Z,99715.41
2023-03-20T07:02:46.477Z,99724.69
2023-03-20T07:05:26.540Z,99718.72
2023-03-20T07:07:59.873Z,99722.97
2023-03-20T07:10:35.219Z,99717.03
2023-03-20T07:13:09.452Z,99716.91
2023-03-20T07:15:53.886Z,99718.44
2023-03-20T07:18:36.371Z,99726.78
2023-03-20T07:21:08.994Z,99731.47
2023-03-20T07:23:39.065Z,99730.13
2023-03-20T07:26:15.312Z,99737.06
2023-03-20T07:28:45.126Z,99731.38
2023-03-20T07:31:35.975Z,99728.84
2023-03-20T07:34:26.679Z,99730.16
2023-03-20T07:37:06.900Z,99724.53
2023-03-20T07:39:41.858Z,99737.28
2023-03-20T07:42:39.262Z,99735.84
2023-03-20T07:45:16.929Z,99736.84
2023-03-20T07:47:49.544Z,99734.56
2023-03-20T07:50:20.167Z,99737.94
2023-03-20T07:52:51.872Z,99741.44
2023-03-20T07:55:34.399Z,99744.66
2023-03-20T07:58:18.029Z,99735.59
2023-03-20T08:00:48.971Z,99736.66
2023-03-20T08:03:19.395Z,99736.97
2023-03-20T08:05:53.481Z,99734.13
2023-03-20T08:08:23.890Z,99740.78
2023-03-20T08:10:55.666Z,99748.34
2023-03-20T08:13:26.408Z,99743.50
2023-03-20T08:15:58.324Z,99738.56
2023-03-20T08:18:28.824Z,99735.75
2023-03-20T08:21:10.066Z,99725.56
2023-03-20T08:23:41.130Z,99732.41
2023-03-20T08:26:13.026Z,99739.75
2023-03-20T08:28:52.617Z,99727.59
2023-03-20T08:31:24.889Z,99740.47
2023-03-20T08:34:05.881Z,99733.75
2023-03-20T08:36:35.532Z,99733.31
2023-03-20T08:39:04.776Z,99724.28
2023-03-20T08:41:36.915Z,99734.22
2023-03-20T08:44:07.383Z,99718.09
2023-03-20T08:46:40.151Z,99720.19
2023-03-20T08:49:11.237Z,99726.06
2023-03-20T08:51:43.398Z,99726.72
2023-03-20T08:54:11.721Z,99732.44
2023-03-20T08:56:40.931Z,99734.81
2023-03-20T08:59:11.385Z,99725.31
2023-03-20T09:01:50.176Z,99730.59
2023-03-20T09:04:22.212Z,99742.16
2023-03-20T09:06:53.843Z,99727.81
2023-03-20T09:09:30.012Z,99735.84
2023-03-20T09:12:10.624Z,99736.28
2023-03-20T09:14:43.949Z,99729.19
2023-03-20T09:17:13.514Z,99741.16
2023-03-20T09:19:44.763Z,99734.59
2023-03-20T09:22:14.622Z,99731.66
2023-03-20T09:24:44.864Z,99742.00
2023-03-20T09:27:16.862Z,99735.31
2023-03-20T09:29:57.830Z,99733.31
2023-03-20T09:32:32.200Z,99734.00
2023-03-20T09:35:00.330Z,99735.84
2023-03-20T09:37:29.684Z,99727.97
2023-03-20T09:39:58.741Z,99724.13
2023-03-20T09:42:43.330Z,99734.19
2023-03-20T09:45:26.118Z,99728.31
2023-03-20T09:48:05.045Z,99717.56
2023-03-20T09:50:40.952Z,99736.56
2023-03-20T09:53:16.720Z,99728.50
2023-03-20T09:55:49.812Z,99748.31
2023-03-20T09:58:24.595Z,99743.97
2023-03-20T10:00:58.252Z,99723.97
2023-03-20T10:03:38.832Z,99729.19
2023-03-20T10:06:11.369Z,99740.28
2023-03-20T10:08:45.188Z,99724.34
2023-03-20T10:11:29.006Z,99717.41
2023-03-20T10:14:11.756Z,99710.84
2023-03-20T10:17:06.462Z,99713.34
2023-03-20T10:19:48.018Z,99705.28
2023-03-20T10:22:27.373Z,99704.13
2023-03-20T10:24:58.591Z,99705.28
2023-03-20T10:27:30.243Z,99699.88
2023-03-20T10:30:20.289Z,99717.56
2023-03-20T10:33:02.868Z,99707.97
2023-03-20T10:35:43.559Z,99687.53
2023-03-20T10:38:27.155Z,99704.06
2023-03-20T10:40:57.985Z,99701.03
2023-03-20T10:43:43.034Z,99686.22
2023-03-20T10:46:14.641Z,99690.97
2023-03-20T10:48:47.843Z,99685.13
2023-03-20T10:51:31.417Z,99680.56
2023-03-20T10:54:03.362Z,99664.22
2023-03-20T10:56:36.469Z,99674.66
2023-03-20T10:59:09.355Z,99672.66
2023-03-20T11:01:38.568Z,99676.53
2023-03-20T11:04:09.484Z,99670.56
2023-03-20T11:06:47.264Z,99667.22
2023-03-20T11:09:23.088Z,99662.13
2023-03-20T11:12:07.548Z,99651.88
2023-03-20T11:14:39.597Z,99671.34
2023-03-20T11:17:09.454Z,99667.88
2023-03-20T11:19:43.369Z,99662.31
2023-03-20T11:22:27.116Z,99654.47
2023-03-20T11:25:01.380Z,99651.88
2023-03-20T11:27:34.967Z,99652.56
2023-03-20T11:30:09.337Z,99670.25
2023-03-20T11:32:45.283Z,99638.56
2023-03-20T11:35:39.034Z,99642.28
2023-03-20T11:38:15.976Z,99643.50
2023-03-20T11:40:52.822Z,99622.84
2023-03-20T11:43:26.669Z,99618.69
2023-03-20T11:46:05.268Z,99634.94
2023-03-20T11:48:43.041Z,99622.84
2023-03-20T11:51:24.482Z,99611.69
2023-03-20T11:54:04.597Z,99624.16
2023-03-20T11:56:38.183Z,99609.47
2023-03-20T11:59:19.359Z,99614.41
2023-03-20T12:01:53.186Z,99611.41
2023-03-20T12:04:31.223Z,99608.94
2023-03-20T12:07:04.711Z,99605.56
2023-03-20T12:09:59.798Z,99600.81
2023-03-20T12:12:41.097Z,99617.56
2023-03-20T12:15:22.293Z,99605.59
2023-03-20T12:17:55.980Z,99608.22
2023-03-20T12:20:41.735Z,99598.53
2023-03-20T12:23:28.016Z,99599.88
2023-03-20T12:26:04.244Z,99632.72
2023-03-20T12:28:39.683Z,99610.56
2023-03-20T12:31:29.983Z,99610.97
2023-03-20T12:34:05.801Z,99619.25
2023-03-20T12:36:39.186Z,99620.34
2023-03-20T12:39:14.213Z,99613.53
2023-03-20T12:42:06.977Z,99617.41
2023-03-20T12:44:43.070Z,99616.38
2023-03-20T12:47:28.440Z,99604.78
2023-03-20T12:50:05.576Z,99619.84
2023-03-20T12:52:45.933Z,99614.69
2023-03-20T12:55:37.201Z,99612.00
2023-03-20T12:58:21.403Z,99602.38
2023-03-20T13:00:56.687Z,99596.53
2023-03-20T13:04:02.803Z,99597.97
2023-03-20T13:06:39.885Z,99589.47
2023-03-20T13:09:31.837Z,99594.63
2023-03-20T13:12:10.329Z,99589.25
2023-03-20T13:14:47.143Z,99598.13
2023-03-20T13:17:23.111Z,99588.59
2023-03-20T13:20:06.654Z,99584.94
2023-03-20T13:22:43.517Z,99584.63
2023-03-20T13:25:26.664Z,99574.25
2023-03-20T13:28:09.925Z,99574.25
2023-03-20T13:30:48.104Z,99577.47
2023-03-20T13:33:27.722Z,99576.34
2023-03-20T13:36:07.563Z,99573.13
2023-03-20T13:38:42.413Z,99567.16
2023-03-20T13:41:12.548Z,99579.81
2023-03-20T13:43:48.609Z,99577.72
2023-03-20T13:46:25.472Z,99582.09
2023-03-20T13:49:02.149Z,99578.34
2023-03-20T13:51:37.269Z,99570.63
2023-03-20T13:54:22.917Z,99590.84
2023-03-20T13:56:56.042Z,99574.50
2023-03-20T13:59:58.897Z,99573.19
2023-03-20T14:03:20.000Z,99574.56
2023-03-20T14:05:54.244Z,99578.88
2023-03-20T14:08:32.593Z,99586.03
2023-03-20T14:11:37.756Z,99583.28
2023-03-20T14:14:14.644Z,99574.63
2023-03-20T14:16:43.511Z,99575.50
2023-03-20T14:19:24.230Z,99569.78
2023-03-20T14:21:55.924Z,99569.94
2023-03-20T14:24:25.575Z,99567.50
2023-03-20T14:26:57.929Z,99563.78
2023-03-20T14:29:36.777Z,99561.97
2023-03-20T14:32:25.876Z,99560.94
2023-03-20T14:35:04.624Z,99557.50
2023-03-20T14:37:39.756Z,99543.72
2023-03-20T14:40:17.630Z,99560.13
2023-03-20T14:42:55.835Z,99550.81
2023-03-20T14:45:44.304Z,99545.06
2023-03-20T14:48:27.917Z,99546.41
2023-03-20T14:51:18.985Z,99557.41
2023-03-20T14:54:02.263Z,99545.06
2023-03-20T14:56:44.375Z,99557.44
2023-03-20T14:59:21.247Z,99556.94
2023-03-20T15:02:00.100Z,99568.22
2023-03-20T15:04:53.924Z,99566.78
2023-03-20T15:07:47.993Z,99568.06
2023-03-20T15:10:19.061Z,99566.94
2023-03-20T15:12:49.913Z,99559.81
2023-03-20T15:15:28.169Z,99566.50
2023-03-20T15:17:57.922Z,99564.50
2023-03-20T15:20:32.765Z,99561.63
2023-03-20T15:23:21.274Z,99560.63
2023-03-20T15:25:58.478Z,99566.13
2023-03-20T15:28:30.874Z,99562.03
2023-03-20T15:31:01.397Z,99555.47
2023-03-20T15:33:34.015Z,99565.19
2023-03-20T15:36:09.384Z,99560.44
2023-03-20T15:38:52.417Z,99562.13
2023-03-20T15:41:34.434Z,99567.88
2023-03-20T15:44:22.937Z,99562.84
2023-03-20T15:47:00.141Z,99577.44
2023-03-20T15:49:32.956Z,99569.53
2023-03-20T15:52:07.163Z,99571.56
2023-03-20T15:54:39.547Z,99586.75
2023-03-20T15:57:09.002Z,99598.44
2023-03-20T15:59:42.334Z,99598.34
2023-03-20T16:02:15.935Z,99593.16
2023-03-20T16:04:48.200Z,99588.19
2023-03-20T16:07:25.628Z,99588.81
2023-03-20T16:10:35.040Z,99584.78
2023-03-20T16:13:06.693Z,99582.69
2023-03-20T16:15:38.510Z,99596.47
2023-03-20T16:18:12.638Z,99603.69
2023-03-20T16:20:46.506Z,99600.00
2023-03-20T16:23:22.283Z,99602.06
2023-03-20T16:25:58.732Z,99598.13
2023-03-20T16:28:31.023Z,99599.84
2023-03-20T16:31:15.675Z,99624.72
2023-03-20T16:33:48.476Z,99596.63
2023-03-20T16:36:29.932Z,99593.09
2023-03-20T16:39:07.290Z,99596.81
2023-03-20T16:41:53.293Z,99603.56
2023-03-20T16:44:29.426Z,99600.38
2023-03-20T16:47:01.506Z,99605.06
2023-03-20T16:50:17.162Z,99613.31
2023-03-20T16:52:56.953Z,99623.84
2023-03-20T16:55:29.380Z,99609.59
2023-03-20T16:58:06.593Z,99622.84
2023-03-20T17:00:45.646Z,99612.94
2023-03-20T17:03:20.753Z,99606.56
2023-03-20T17:05:58.051Z,99625.53
2023-03-20T17:08:47.549Z,99623.47
2023-03-20T17:11:33.280Z,99617.44
2023-03-20T17:14:08.885Z,99614.41
2023-03-20T17:16:48.946Z,99631.84
2023-03-20T17:19:20.841Z,99622.97
2023-03-20T17:21:54.619Z,99631.53
2023-03-20T17:24:27.139Z,99637.25
2023-03-20T17:27:05.261Z,99647.63
2023-03-20T17:29:39.009Z,99646.94
2023-03-20T17:32:20.061Z,99642.78
2023-03-20T17:34:50.879Z,99654.66
2023-03-20T17:37:30.041Z,99655.66
2023-03-20T17:40:04.400Z,99658.47
2023-03-20T17:42:34.523Z,99657.00
2023-03-20T17:45:10.691Z,99645.63
2023-03-20T17:47:41.246Z,99663.06
2023-03-20T17:50:17.783Z,99657.81
2023-03-20T17:52:48.289Z,99652.63
2023-03-20T17:55:27.703Z,99655.03
2023-03-20T17:57:59.445Z,99660.53
2023-03-20T18:00:33.644Z,99663.28
2023-03-20T18:03:03.320Z,99667.41
2023-03-20T18:05:34.974Z,99657.00
2023-03-20T18:08:14.580Z,99661.03
2023-03-20T18:10:58.429Z,99663.97
2023-03-20T18:13:30.140Z,99649.09
2023-03-20T18:16:20.770Z,99655.13
2023-03-20T18:18:53.594Z,99658.69
2023-03-20T18:21:24.578Z,99663.97
2023-03-20T18:23:56.241Z,99660.41
2023-03-20T18:26:31.667Z,99659.78
2023-03-20T18:29:13.692Z,99675.97
2023-03-20T18:31:54.450Z,99661.44
2023-03-20T18:34:27.093Z,99657.03
2023-03-20T18:36:58.795Z,99672.63
2023-03-20T18:39:30.429Z,99665.13
2023-03-20T18:42:13.896Z,99666.25
2023-03-20T18:44:52.302Z,99665.03
2023-03-20T18:47:49.833Z,99665.09
2023-03-20T18:50:31.709Z,99672.81
2023-03-20T18:53:09.684Z,99674.44
2023-03-20T18:55:47.934Z,99676.44
2023-03-20T18:58:23.978Z,99676.22
2023-03-20T19:00:54.882Z,99675.28
2023-03-20T19:03:31.989Z,99684.25
2023-03-20T19:06:21.574Z,99669.50
2023-03-20T19:08:57.365Z,99667.38
2023-03-20T19:11:28.741Z,99683.53
2023-03-20T19:14:02.063Z,99689.22
2023-03-20T19:16:44.545Z,99679.69
2023-03-20T19:19:32.883Z,99678.03
2023-03-20T19:22:26.502Z,99688.41
2023-03-20T19:25:04.642Z,99669.19
2023-03-20T19:27:43.683Z,99666.28
2023-03-20T19:30:28.638Z,99678.81
2023-03-20T19:33:08.530Z,99678.16
2023-03-20T19:36:04.196Z,99689.66
2023-03-20T19:39:02.962Z,99681.63
2023-03-20T19:41:45.616Z,99684.19
2023-03-20T19:44:20.407Z,99689.91
2023-03-20T19:46:57.423Z,99686.88
2023-03-20T19:49:40.735Z,99681.72
2023-03-20T19:52:36.068Z,99676.75
2023-03-20T19:55:31.046Z,99686.75
2023-03-20T19:58:14.599Z,99692.72
2023-03-20T20:00:59.207Z,99690.50
2023-03-20T20:03:32.673Z,99686.19
2023-03-20T20:06:10.789Z,99690.59
2023-03-20T20:08:56.448Z,99687.06
2023-03-20T20:11:41.309Z,99701.63
2023-03-20T20:14:14.949Z,99682.19
2023-03-20T20:17:02.655Z,99669.19
2023-03-20T20:19:40.749Z,99674.72
2023-03-20T20:22:24.969Z,99686.59
2023-03-20T20:25:08.395Z,99682.88
2023-03-20T20:27:47.562Z,99693.19
2023-03-20T20:30:25.412Z,99684.34
2023-03-20T20:33:09.515Z,99675.94
2023-03-20T20:36:36.490Z,99684.66
2023-03-20T20:38:58.846Z,99684.13
2023-03-20T20:41:53.849Z,99687.66
2023-03-20T20:44:43.752Z,99682.91
2023-03-20T20:47:15.954Z,99691.13
2023-03-20T20:49:56.286Z,99691.34
2023-03-20T20:52:33.927Z,99693.41
2023-03-20T20:55:33.912Z,99683.69
2023-03-20T20:58:10.126Z,99694.09
2023-03-20T21:00:52.558Z,99679.94
2023-03-20T21:03:31.058Z,99692.16
2023-03-20T21:06:11.240Z,99692.91
2023-03-20T21:08:47.185Z,99688.47
2023-03-20T21:11:20.654Z,99685.84
2023-03-20T21:14:04.518Z,99680.63
2023-03-20T21:16:43.219Z,99680.16
2023-03-20T21:19:27.938Z,99699.19
2023-03-20T21:21:57.348Z,99688.50
2023-03-20T21:24:33.939Z,99682.09
2023-03-20T21:27:09.155Z,99685.78
2023-03-20T21:29:45.520Z,99692.91
2023-03-20T21:32:33.294Z,99689.34
2023-03-20T21:35:20.542Z,99696.34
2023-03-20T21:38:47.681Z,99690.28
2023-03-20T21:40:47.290Z,99688.47
2023-03-20T21:43:17.647Z,99687.56
2023-03-20T21:49:41.214Z,99687.56
2023-03-20T22:07:26.483Z,99709.88
2023-03-20T22:15:46.650Z,99699.78
2023-03-20T22:19:11.932Z,99702.34
2023-03-20T22:24:45.169Z,99699.78
2023-03-20T22:33:37.183Z,99699.31
2023-03-20T22:36:25.601Z,99707.19
2023-03-20T22:39:15.975Z,99697.09
2023-03-20T22:44:53.683Z,99699.91
2023-03-20T22:47:18.010Z,99696.53
2023-03-20T22:49:48.968Z,99698.75
2023-03-20T22:52:45.488Z,99693.09
2023-03-20T22:55:19.547Z,99686.53
2023-03-20T22:58:06.423Z,99688.00
2023-03-20T23:00:45.158Z,99691.84
2023-03-20T23:03:29.684Z,99690.81
2023-03-20T23:06:13.771Z,99695.16
2023-03-20T23:08:52.295Z,99689.78
2023-03-20T23:11:27.214Z,99701.66
2023-03-20T23:13:58.475Z,99683.59
2023-03-20T23:16:30.637Z,99680.09
2023-03-20T23:19:06.456Z,99688.59
2023-03-20T23:21:39.846Z,99689.50
2023-03-20T23:24:16.913Z,99679.84
2023-03-20T23:26:47.833Z,99677.63
2023-03-20T23:29:19.644Z,99687.56
2023-03-20T23:31:48.950Z,99668.19
2023-03-20T23:34:22.453Z,99674.56
2023-03-20T23:36:53.032Z,99676.69
2023-03-20T23:39:24.475Z,99675.88
2023-03-20T23:42:20.379Z,99674.19
2023-03-20T23:44:58.709Z,99680.22
2023-03-20T23:47:43.898Z,99677.31
2023-03-20T23:53:19.436Z,99671.50
2023-03-20T23:55:58.546Z,99673.47
2023-03-20T23:58:37.501Z,99671.19
